sensor_id;sensor_type;location;lat;lon;timestamp;P1;durP1;ratioP1;P2;durP2;ratioP2
8622;SDS011;4349;47.552;8.904;2023-12-20T00:01:15;3.97;;;3.73;;
8622;SDS011;4349;47.552;8.904;2023-12-20T00:03:43;4.43;;;4.13;;
8622;SDS011;4349;47.552;8.904;2023-12-20T00:06:10;4.20;;;3.90;;
8622;SDS011;4349;47.552;8.904;2023-12-20T00:08:38;4.30;;;4.03;;
8622;SDS011;4349;47.552;8.904;2023-12-20T00:11:05;4.20;;;3.90;;
8622;SDS011;4349;47.552;8.904;2023-12-20T00:13:34;4.30;;;4.00;;
8622;SDS011;4349;47.552;8.904;2023-12-20T00:16:02;4.00;;;3.70;;
8622;SDS011;4349;47.552;8.904;2023-12-20T00:18:30;4.30;;;4.10;;
8622;SDS011;4349;47.552;8.904;2023-12-20T00:20:57;4.60;;;4.20;;
8622;SDS011;4349;47.552;8.904;2023-12-20T00:23:25;4.33;;;4.00;;
8622;SDS011;4349;47.552;8.904;2023-12-20T00:25:52;4.83;;;4.43;;
8622;SDS011;4349;47.552;8.904;2023-12-20T00:28:20;5.03;;;4.63;;
8622;SDS011;4349;47.552;8.904;2023-12-20T00:30:49;4.57;;;4.20;;
8622;SDS011;4349;47.552;8.904;2023-12-20T00:33:17;4.40;;;4.10;;
8622;SDS011;4349;47.552;8.904;2023-12-20T00:35:45;4.43;;;4.13;;
8622;SDS011;4349;47.552;8.904;2023-12-20T00:38:12;5.07;;;4.53;;
8622;SDS011;4349;47.552;8.904;2023-12-20T00:40:40;4.00;;;3.80;;
8622;SDS011;4349;47.552;8.904;2023-12-20T00:43:08;4.40;;;4.10;;
8622;SDS011;4349;47.552;8.904;2023-12-20T00:45:36;5.10;;;4.70;;
8622;SDS011;4349;47.552;8.904;2023-12-20T00:48:06;4.80;;;4.40;;
8622;SDS011;4349;47.552;8.904;2023-12-20T00:50:33;4.60;;;4.30;;
8622;SDS011;4349;47.552;8.904;2023-12-20T00:53:01;4.47;;;4.20;;
8622;SDS011;4349;47.552;8.904;2023-12-20T00:55:29;5.40;;;4.80;;
8622;SDS011;4349;47.552;8.904;2023-12-20T00:57:56;4.60;;;4.40;;
8622;SDS011;4349;47.552;8.904;2023-12-20T01:00:25;4.80;;;4.40;;
8622;SDS011;4349;47.552;8.904;2023-12-20T01:02:53;5.30;;;4.90;;
8622;SDS011;4349;47.552;8.904;2023-12-20T01:05:21;5.27;;;4.87;;
8622;SDS011;4349;47.552;8.904;2023-12-20T01:07:49;6.00;;;5.50;;
8622;SDS011;4349;47.552;8.904;2023-12-20T01:10:17;5.97;;;5.47;;
8622;SDS011;4349;47.552;8.904;2023-12-20T01:12:45;5.60;;;5.10;;
8622;SDS011;4349;47.552;8.904;2023-12-20T01:15:12;5.40;;;5.00;;
8622;SDS011;4349;47.552;8.904;2023-12-20T01:17:40;5.40;;;5.00;;
8622;SDS011;4349;47.552;8.904;2023-12-20T01:20:08;5.67;;;5.17;;
8622;SDS011;4349;47.552;8.904;2023-12-20T01:22:37;5.93;;;5.43;;
8622;SDS011;4349;47.552;8.904;2023-12-20T01:25:05;5.13;;;4.73;;
8622;SDS011;4349;47.552;8.904;2023-12-20T01:27:33;5.93;;;5.43;;
8622;SDS011;4349;47.552;8.904;2023-12-20T01:30:01;5.77;;;5.23;;
8622;SDS011;4349;47.552;8.904;2023-12-20T01:32:28;5.80;;;5.30;;
8622;SDS011;4349;47.552;8.904;2023-12-20T01:34:56;6.30;;;5.80;;
8622;SDS011;4349;47.552;8.904;2023-12-20T01:37:28;6.10;;;5.60;;
8622;SDS011;4349;47.552;8.904;2023-12-20T01:39:57;6.37;;;5.73;;
8622;SDS011;4349;47.552;8.904;2023-12-20T01:42:25;6.40;;;5.80;;
8622;SDS011;4349;47.552;8.904;2023-12-20T01:44:52;6.00;;;5.50;;
8622;SDS011;4349;47.552;8.904;2023-12-20T01:47:20;6.47;;;5.87;;
8622;SDS011;4349;47.552;8.904;2023-12-20T01:49:48;6.30;;;5.70;;
8622;SDS011;4349;47.552;8.904;2023-12-20T01:52:16;6.23;;;5.63;;
8622;SDS011;4349;47.552;8.904;2023-12-20T01:54:44;5.87;;;5.37;;
8622;SDS011;4349;47.552;8.904;2023-12-20T01:57:13;6.60;;;6.00;;
8622;SDS011;4349;47.552;8.904;2023-12-20T01:59:40;6.20;;;5.70;;
8622;SDS011;4349;47.552;8.904;2023-12-20T02:02:08;6.10;;;5.60;;
8622;SDS011;4349;47.552;8.904;2023-12-20T02:04:38;6.77;;;6.17;;
8622;SDS011;4349;47.552;8.904;2023-12-20T02:07:06;5.70;;;5.20;;
8622;SDS011;4349;47.552;8.904;2023-12-20T02:09:34;5.97;;;5.47;;
8622;SDS011;4349;47.552;8.904;2023-12-20T02:12:02;6.23;;;5.73;;
8622;SDS011;4349;47.552;8.904;2023-12-20T02:14:31;5.47;;;5.07;;
8622;SDS011;4349;47.552;8.904;2023-12-20T02:16:59;6.33;;;5.73;;
8622;SDS011;4349;47.552;8.904;2023-12-20T02:19:26;6.20;;;5.60;;
8622;SDS011;4349;47.552;8.904;2023-12-20T02:22:06;6.57;;;5.70;;
8622;SDS011;4349;47.552;8.904;2023-12-20T02:24:33;5.63;;;5.23;;
8622;SDS011;4349;47.552;8.904;2023-12-20T02:27:01;6.17;;;5.57;;
8622;SDS011;4349;47.552;8.904;2023-12-20T02:29:28;6.13;;;5.63;;
8622;SDS011;4349;47.552;8.904;2023-12-20T02:31:56;5.73;;;5.33;;
8622;SDS011;4349;47.552;8.904;2023-12-20T02:34:23;5.97;;;5.50;;
8622;SDS011;4349;47.552;8.904;2023-12-20T02:36:51;6.00;;;5.50;;
8622;SDS011;4349;47.552;8.904;2023-12-20T02:39:20;6.10;;;5.17;;
8622;SDS011;4349;47.552;8.904;2023-12-20T02:41:48;5.50;;;5.10;;
8622;SDS011;4349;47.552;8.904;2023-12-20T02:44:16;5.93;;;5.43;;
8622;SDS011;4349;47.552;8.904;2023-12-20T02:46:43;5.97;;;5.47;;
8622;SDS011;4349;47.552;8.904;2023-12-20T02:49:11;5.13;;;4.83;;
8622;SDS011;4349;47.552;8.904;2023-12-20T02:51:39;6.17;;;5.67;;
8622;SDS011;4349;47.552;8.904;2023-12-20T02:54:06;5.93;;;5.43;;
8622;SDS011;4349;47.552;8.904;2023-12-20T02:56:35;5.73;;;5.23;;
8622;SDS011;4349;47.552;8.904;2023-12-20T02:59:03;5.17;;;4.87;;
8622;SDS011;4349;47.552;8.904;2023-12-20T03:01:32;5.70;;;5.13;;
8622;SDS011;4349;47.552;8.904;2023-12-20T03:03:59;5.80;;;5.40;;
8622;SDS011;4349;47.552;8.904;2023-12-20T03:06:27;6.10;;;5.60;;
8622;SDS011;4349;47.552;8.904;2023-12-20T03:08:55;5.63;;;5.13;;
8622;SDS011;4349;47.552;8.904;2023-12-20T03:11:26;5.67;;;5.27;;
8622;SDS011;4349;47.552;8.904;2023-12-20T03:13:55;5.80;;;5.40;;
8622;SDS011;4349;47.552;8.904;2023-12-20T03:16:22;5.93;;;5.43;;
8622;SDS011;4349;47.552;8.904;2023-12-20T03:18:50;6.13;;;5.63;;
8622;SDS011;4349;47.552;8.904;2023-12-20T03:21:17;5.90;;;5.40;;
8622;SDS011;4349;47.552;8.904;2023-12-20T03:23:45;6.37;;;5.87;;
8622;SDS011;4349;47.552;8.904;2023-12-20T03:26:12;6.03;;;5.63;;
8622;SDS011;4349;47.552;8.904;2023-12-20T03:28:40;6.13;;;5.73;;
8622;SDS011;4349;47.552;8.904;2023-12-20T03:31:10;7.23;;;6.53;;
8622;SDS011;4349;47.552;8.904;2023-12-20T03:33:38;6.77;;;6.17;;
8622;SDS011;4349;47.552;8.904;2023-12-20T03:36:06;6.60;;;6.07;;
8622;SDS011;4349;47.552;8.904;2023-12-20T03:38:33;6.87;;;6.20;;
8622;SDS011;4349;47.552;8.904;2023-12-20T03:41:01;7.23;;;6.63;;
8622;SDS011;4349;47.552;8.904;2023-12-20T03:43:28;7.07;;;6.47;;
8622;SDS011;4349;47.552;8.904;2023-12-20T03:45:56;6.87;;;6.27;;
8622;SDS011;4349;47.552;8.904;2023-12-20T03:48:26;6.83;;;6.23;;
8622;SDS011;4349;47.552;8.904;2023-12-20T03:50:54;6.13;;;5.73;;
8622;SDS011;4349;47.552;8.904;2023-12-20T03:53:21;7.37;;;6.67;;
8622;SDS011;4349;47.552;8.904;2023-12-20T03:55:49;7.17;;;6.47;;
8622;SDS011;4349;47.552;8.904;2023-12-20T03:58:17;7.20;;;6.53;;
8622;SDS011;4349;47.552;8.904;2023-12-20T04:00:44;6.97;;;6.37;;
8622;SDS011;4349;47.552;8.904;2023-12-20T04:03:12;7.33;;;6.73;;
8622;SDS011;4349;47.552;8.904;2023-12-20T04:05:41;7.23;;;6.63;;
8622;SDS011;4349;47.552;8.904;2023-12-20T04:08:09;7.40;;;6.80;;
8622;SDS011;4349;47.552;8.904;2023-12-20T04:10:37;7.33;;;6.63;;
8622;SDS011;4349;47.552;8.904;2023-12-20T04:13:04;7.83;;;6.87;;
8622;SDS011;4349;47.552;8.904;2023-12-20T04:15:32;7.33;;;6.73;;
8622;SDS011;4349;47.552;8.904;2023-12-20T04:17:59;7.70;;;7.00;;
8622;SDS011;4349;47.552;8.904;2023-12-20T04:20:27;7.43;;;6.87;;
8622;SDS011;4349;47.552;8.904;2023-12-20T04:22:56;7.60;;;6.90;;
8622;SDS011;4349;47.552;8.904;2023-12-20T04:25:24;7.73;;;7.13;;
8622;SDS011;4349;47.552;8.904;2023-12-20T04:27:51;8.27;;;7.47;;
8622;SDS011;4349;47.552;8.904;2023-12-20T04:30:19;7.40;;;6.80;;
8622;SDS011;4349;47.552;8.904;2023-12-20T04:32:46;8.17;;;7.43;;
8622;SDS011;4349;47.552;8.904;2023-12-20T04:35:14;7.60;;;6.80;;
8622;SDS011;4349;47.552;8.904;2023-12-20T04:37:42;8.13;;;6.87;;
8622;SDS011;4349;47.552;8.904;2023-12-20T04:40:11;7.90;;;7.20;;
8622;SDS011;4349;47.552;8.904;2023-12-20T04:42:39;7.60;;;7.00;;
8622;SDS011;4349;47.552;8.904;2023-12-20T04:45:07;6.70;;;6.20;;
8622;SDS011;4349;47.552;8.904;2023-12-20T04:47:35;7.23;;;6.53;;
8622;SDS011;4349;47.552;8.904;2023-12-20T04:50:03;7.13;;;6.53;;
8622;SDS011;4349;47.552;8.904;2023-12-20T04:52:31;7.10;;;6.53;;
8622;SDS011;4349;47.552;8.904;2023-12-20T04:54:59;7.73;;;7.10;;
8622;SDS011;4349;47.552;8.904;2023-12-20T04:57:28;7.33;;;6.73;;
8622;SDS011;4349;47.552;8.904;2023-12-20T04:59:55;7.37;;;6.77;;
8622;SDS011;4349;47.552;8.904;2023-12-20T05:02:23;7.20;;;6.60;;
8622;SDS011;4349;47.552;8.904;2023-12-20T05:04:50;7.30;;;6.70;;
8622;SDS011;4349;47.552;8.904;2023-12-20T05:07:21;7.53;;;6.93;;
8622;SDS011;4349;47.552;8.904;2023-12-20T05:09:49;7.70;;;7.10;;
8622;SDS011;4349;47.552;8.904;2023-12-20T05:12:16;7.20;;;6.70;;
8622;SDS011;4349;47.552;8.904;2023-12-20T05:14:45;7.00;;;6.50;;
8622;SDS011;4349;47.552;8.904;2023-12-20T05:17:13;6.97;;;6.47;;
8622;SDS011;4349;47.552;8.904;2023-12-20T05:19:40;7.20;;;6.60;;
8622;SDS011;4349;47.552;8.904;2023-12-20T05:22:08;7.27;;;6.67;;
8622;SDS011;4349;47.552;8.904;2023-12-20T05:24:36;7.40;;;6.80;;
8622;SDS011;4349;47.552;8.904;2023-12-20T05:27:03;6.87;;;6.30;;
8622;SDS011;4349;47.552;8.904;2023-12-20T05:29:31;6.53;;;6.03;;
8622;SDS011;4349;47.552;8.904;2023-12-20T05:32:00;6.60;;;6.10;;
8622;SDS011;4349;47.552;8.904;2023-12-20T05:34:28;6.60;;;6.13;;
8622;SDS011;4349;47.552;8.904;2023-12-20T05:36:56;6.73;;;6.13;;
8622;SDS011;4349;47.552;8.904;2023-12-20T05:39:24;7.10;;;6.60;;
8622;SDS011;4349;47.552;8.904;2023-12-20T05:41:52;6.70;;;6.20;;
8622;SDS011;4349;47.552;8.904;2023-12-20T05:44:19;7.47;;;6.87;;
8622;SDS011;4349;47.552;8.904;2023-12-20T05:46:47;6.37;;;5.97;;
8622;SDS011;4349;47.552;8.904;2023-12-20T05:49:16;6.53;;;6.03;;
8622;SDS011;4349;47.552;8.904;2023-12-20T05:51:43;7.00;;;6.40;;
8622;SDS011;4349;47.552;8.904;2023-12-20T05:54:11;6.30;;;5.80;;
8622;SDS011;4349;47.552;8.904;2023-12-20T05:56:38;6.67;;;6.17;;
8622;SDS011;4349;47.552;8.904;2023-12-20T05:59:06;7.10;;;6.40;;
8622;SDS011;4349;47.552;8.904;2023-12-20T06:01:34;6.57;;;6.07;;
8622;SDS011;4349;47.552;8.904;2023-12-20T06:04:02;6.37;;;5.87;;
8622;SDS011;4349;47.552;8.904;2023-12-20T06:06:31;6.70;;;6.10;;
8622;SDS011;4349;47.552;8.904;2023-12-20T06:08:59;6.47;;;5.97;;
8622;SDS011;4349;47.552;8.904;2023-12-20T06:11:29;6.90;;;6.30;;
8622;SDS011;4349;47.552;8.904;2023-12-20T06:13:56;7.20;;;6.60;;
8622;SDS011;4349;47.552;8.904;2023-12-20T06:16:24;6.40;;;6.00;;
8622;SDS011;4349;47.552;8.904;2023-12-20T06:18:51;7.07;;;6.47;;
8622;SDS011;4349;47.552;8.904;2023-12-20T06:21:19;6.10;;;5.70;;
8622;SDS011;4349;47.552;8.904;2023-12-20T06:23:48;6.10;;;5.67;;
8622;SDS011;4349;47.552;8.904;2023-12-20T06:26:16;6.37;;;5.87;;
8622;SDS011;4349;47.552;8.904;2023-12-20T06:28:43;5.73;;;5.33;;
8622;SDS011;4349;47.552;8.904;2023-12-20T06:31:11;5.73;;;5.33;;
8622;SDS011;4349;47.552;8.904;2023-12-20T06:33:39;5.63;;;5.23;;
8622;SDS011;4349;47.552;8.904;2023-12-20T06:36:10;5.70;;;5.20;;
8622;SDS011;4349;47.552;8.904;2023-12-20T06:38:38;5.57;;;5.17;;
8622;SDS011;4349;47.552;8.904;2023-12-20T06:41:07;5.60;;;5.20;;
8622;SDS011;4349;47.552;8.904;2023-12-20T06:43:34;6.17;;;5.77;;
8622;SDS011;4349;47.552;8.904;2023-12-20T06:46:15;5.90;;;5.47;;
8622;SDS011;4349;47.552;8.904;2023-12-20T06:48:43;6.00;;;5.60;;
8622;SDS011;4349;47.552;8.904;2023-12-20T06:51:12;6.10;;;5.60;;
8622;SDS011;4349;47.552;8.904;2023-12-20T06:53:39;5.50;;;5.07;;
8622;SDS011;4349;47.552;8.904;2023-12-20T06:56:08;5.37;;;4.97;;
8622;SDS011;4349;47.552;8.904;2023-12-20T06:58:36;6.00;;;5.60;;
8622;SDS011;4349;47.552;8.904;2023-12-20T07:01:04;5.73;;;5.30;;
8622;SDS011;4349;47.552;8.904;2023-12-20T07:03:32;5.50;;;5.10;;
8622;SDS011;4349;47.552;8.904;2023-12-20T07:05:59;6.33;;;5.83;;
8622;SDS011;4349;47.552;8.904;2023-12-20T07:08:27;5.80;;;5.30;;
8622;SDS011;4349;47.552;8.904;2023-12-20T07:10:54;5.87;;;5.47;;
8622;SDS011;4349;47.552;8.904;2023-12-20T07:13:23;5.70;;;5.30;;
8622;SDS011;4349;47.552;8.904;2023-12-20T07:15:51;5.37;;;4.97;;
8622;SDS011;4349;47.552;8.904;2023-12-20T07:18:19;5.97;;;5.50;;
8622;SDS011;4349;47.552;8.904;2023-12-20T07:20:46;5.90;;;5.40;;
8622;SDS011;4349;47.552;8.904;2023-12-20T07:23:14;6.03;;;5.60;;
8622;SDS011;4349;47.552;8.904;2023-12-20T07:25:41;5.53;;;5.13;;
8622;SDS011;4349;47.552;8.904;2023-12-20T07:28:09;5.93;;;5.50;;
8622;SDS011;4349;47.552;8.904;2023-12-20T07:30:38;5.77;;;5.37;;
8622;SDS011;4349;47.552;8.904;2023-12-20T07:33:06;6.30;;;5.80;;
8622;SDS011;4349;47.552;8.904;2023-12-20T07:35:35;5.90;;;5.30;;
8622;SDS011;4349;47.552;8.904;2023-12-20T07:38:03;5.70;;;5.20;;
8622;SDS011;4349;47.552;8.904;2023-12-20T07:40:31;5.13;;;4.83;;
8622;SDS011;4349;47.552;8.904;2023-12-20T07:42:58;5.07;;;4.77;;
8622;SDS011;4349;47.552;8.904;2023-12-20T07:45:26;5.70;;;5.30;;
8622;SDS011;4349;47.552;8.904;2023-12-20T07:47:55;5.87;;;5.43;;
8622;SDS011;4349;47.552;8.904;2023-12-20T07:50:23;5.60;;;5.13;;
8622;SDS011;4349;47.552;8.904;2023-12-20T07:52:50;5.20;;;4.90;;
8622;SDS011;4349;47.552;8.904;2023-12-20T07:55:18;5.30;;;5.00;;
8622;SDS011;4349;47.552;8.904;2023-12-20T07:57:46;5.67;;;5.27;;
8622;SDS011;4349;47.552;8.904;2023-12-20T08:00:14;5.50;;;5.03;;
8622;SDS011;4349;47.552;8.904;2023-12-20T08:02:42;5.50;;;5.00;;
8622;SDS011;4349;47.552;8.904;2023-12-20T08:05:11;5.43;;;5.10;;
8622;SDS011;4349;47.552;8.904;2023-12-20T08:07:41;5.90;;;5.40;;
8622;SDS011;4349;47.552;8.904;2023-12-20T08:10:09;5.50;;;5.10;;
8622;SDS011;4349;47.552;8.904;2023-12-20T08:12:37;5.23;;;4.83;;
8622;SDS011;4349;47.552;8.904;2023-12-20T08:15:06;5.00;;;4.70;;
8622;SDS011;4349;47.552;8.904;2023-12-20T08:17:34;4.83;;;4.43;;
8622;SDS011;4349;47.552;8.904;2023-12-20T08:20:01;4.83;;;4.57;;
8622;SDS011;4349;47.552;8.904;2023-12-20T08:22:31;5.60;;;5.10;;
8622;SDS011;4349;47.552;8.904;2023-12-20T08:24:58;4.67;;;4.37;;
8622;SDS011;4349;47.552;8.904;2023-12-20T08:27:26;4.40;;;4.20;;
8622;SDS011;4349;47.552;8.904;2023-12-20T08:29:53;4.73;;;4.43;;
8622;SDS011;4349;47.552;8.904;2023-12-20T08:32:21;4.07;;;3.87;;
8622;SDS011;4349;47.552;8.904;2023-12-20T08:34:49;4.10;;;3.90;;
8622;SDS011;4349;47.552;8.904;2023-12-20T08:37:17;3.87;;;3.50;;
8622;SDS011;4349;47.552;8.904;2023-12-20T08:39:46;4.50;;;4.20;;
8622;SDS011;4349;47.552;8.904;2023-12-20T08:42:13;4.07;;;3.87;;
8622;SDS011;4349;47.552;8.904;2023-12-20T08:44:41;4.37;;;4.17;;
8622;SDS011;4349;47.552;8.904;2023-12-20T08:47:08;4.00;;;3.80;;
8622;SDS011;4349;47.552;8.904;2023-12-20T08:49:39;4.13;;;3.93;;
8622;SDS011;4349;47.552;8.904;2023-12-20T08:52:07;3.90;;;3.70;;
8622;SDS011;4349;47.552;8.904;2023-12-20T08:54:34;3.70;;;3.50;;
8622;SDS011;4349;47.552;8.904;2023-12-20T08:57:04;3.80;;;3.60;;
8622;SDS011;4349;47.552;8.904;2023-12-20T08:59:33;3.87;;;3.60;;
8622;SDS011;4349;47.552;8.904;2023-12-20T09:02:00;4.50;;;4.20;;
8622;SDS011;4349;47.552;8.904;2023-12-20T09:04:28;3.73;;;3.53;;
8622;SDS011;4349;47.552;8.904;2023-12-20T09:06:56;4.10;;;3.80;;
8622;SDS011;4349;47.552;8.904;2023-12-20T09:09:23;3.43;;;3.33;;
8622;SDS011;4349;47.552;8.904;2023-12-20T09:11:51;4.00;;;3.67;;
8622;SDS011;4349;47.552;8.904;2023-12-20T09:14:20;4.07;;;3.87;;
8622;SDS011;4349;47.552;8.904;2023-12-20T09:16:47;4.40;;;4.20;;
8622;SDS011;4349;47.552;8.904;2023-12-20T09:19:17;4.50;;;4.10;;
8622;SDS011;4349;47.552;8.904;2023-12-20T09:21:45;4.10;;;3.87;;
8622;SDS011;4349;47.552;8.904;2023-12-20T09:24:12;4.17;;;3.97;;
8622;SDS011;4349;47.552;8.904;2023-12-20T09:26:40;5.00;;;4.70;;
8622;SDS011;4349;47.552;8.904;2023-12-20T09:29:08;4.50;;;4.20;;
8622;SDS011;4349;47.552;8.904;2023-12-20T09:31:42;5.23;;;4.80;;
8622;SDS011;4349;47.552;8.904;2023-12-20T09:34:13;5.10;;;4.80;;
8622;SDS011;4349;47.552;8.904;2023-12-20T09:36:41;5.37;;;5.00;;
8622;SDS011;4349;47.552;8.904;2023-12-20T09:39:12;5.00;;;4.60;;
8622;SDS011;4349;47.552;8.904;2023-12-20T09:41:41;4.83;;;4.43;;
8622;SDS011;4349;47.552;8.904;2023-12-20T09:44:10;5.10;;;4.80;;
8622;SDS011;4349;47.552;8.904;2023-12-20T09:46:40;4.90;;;4.60;;
8622;SDS011;4349;47.552;8.904;2023-12-20T09:49:11;4.63;;;4.43;;
8622;SDS011;4349;47.552;8.904;2023-12-20T09:51:39;5.53;;;5.13;;
8622;SDS011;4349;47.552;8.904;2023-12-20T09:54:08;4.93;;;4.63;;
8622;SDS011;4349;47.552;8.904;2023-12-20T09:56:37;4.43;;;4.23;;
8622;SDS011;4349;47.552;8.904;2023-12-20T09:59:04;5.10;;;4.70;;
8622;SDS011;4349;47.552;8.904;2023-12-20T10:01:32;4.73;;;4.53;;
8622;SDS011;4349;47.552;8.904;2023-12-20T10:04:01;5.00;;;4.60;;
8622;SDS011;4349;47.552;8.904;2023-12-20T10:06:38;4.77;;;4.47;;
8622;SDS011;4349;47.552;8.904;2023-12-20T10:09:06;5.00;;;4.70;;
8622;SDS011;4349;47.552;8.904;2023-12-20T10:11:34;5.33;;;4.93;;
8622;SDS011;4349;47.552;8.904;2023-12-20T10:14:03;5.10;;;4.70;;
8622;SDS011;4349;47.552;8.904;2023-12-20T10:16:32;4.93;;;4.63;;
8622;SDS011;4349;47.552;8.904;2023-12-20T10:19:00;4.83;;;4.53;;
8622;SDS011;4349;47.552;8.904;2023-12-20T10:21:28;5.27;;;4.97;;
8622;SDS011;4349;47.552;8.904;2023-12-20T10:23:57;5.80;;;5.40;;
8622;SDS011;4349;47.552;8.904;2023-12-20T10:26:25;5.93;;;5.43;;
8622;SDS011;4349;47.552;8.904;2023-12-20T10:28:53;5.60;;;5.30;;
8622;SDS011;4349;47.552;8.904;2023-12-20T10:31:25;5.27;;;4.90;;
8622;SDS011;4349;47.552;8.904;2023-12-20T10:33:53;5.10;;;4.80;;
8622;SDS011;4349;47.552;8.904;2023-12-20T10:36:21;5.73;;;5.33;;
8622;SDS011;4349;47.552;8.904;2023-12-20T10:38:50;5.13;;;4.73;;
8622;SDS011;4349;47.552;8.904;2023-12-20T10:41:21;5.40;;;5.00;;
8622;SDS011;4349;47.552;8.904;2023-12-20T10:43:50;5.80;;;5.30;;
8622;SDS011;4349;47.552;8.904;2023-12-20T10:46:18;5.37;;;5.07;;
8622;SDS011;4349;47.552;8.904;2023-12-20T10:48:46;5.90;;;5.40;;
8622;SDS011;4349;47.552;8.904;2023-12-20T10:51:15;5.17;;;4.77;;
8622;SDS011;4349;47.552;8.904;2023-12-20T10:53:44;4.40;;;4.10;;
8622;SDS011;4349;47.552;8.904;2023-12-20T10:56:16;4.50;;;4.30;;
8622;SDS011;4349;47.552;8.904;2023-12-20T10:58:46;4.10;;;3.90;;
8622;SDS011;4349;47.552;8.904;2023-12-20T11:01:14;4.87;;;4.57;;
8622;SDS011;4349;47.552;8.904;2023-12-20T11:03:43;4.37;;;4.10;;
8622;SDS011;4349;47.552;8.904;2023-12-20T11:06:13;4.50;;;4.20;;
8622;SDS011;4349;47.552;8.904;2023-12-20T11:08:46;3.93;;;3.73;;
8622;SDS011;4349;47.552;8.904;2023-12-20T11:11:18;3.80;;;3.60;;
8622;SDS011;4349;47.552;8.904;2023-12-20T11:13:55;3.90;;;3.70;;
8622;SDS011;4349;47.552;8.904;2023-12-20T11:16:24;4.03;;;3.83;;
8622;SDS011;4349;47.552;8.904;2023-12-20T11:19:04;3.80;;;3.60;;
8622;SDS011;4349;47.552;8.904;2023-12-20T11:21:33;4.07;;;3.83;;
8622;SDS011;4349;47.552;8.904;2023-12-20T11:24:01;4.20;;;3.87;;
8622;SDS011;4349;47.552;8.904;2023-12-20T11:26:29;3.50;;;3.30;;
8622;SDS011;4349;47.552;8.904;2023-12-20T11:29:06;3.50;;;3.30;;
8622;SDS011;4349;47.552;8.904;2023-12-20T11:31:54;3.17;;;3.07;;
8622;SDS011;4349;47.552;8.904;2023-12-20T11:34:22;2.90;;;2.80;;
8622;SDS011;4349;47.552;8.904;2023-12-20T11:36:53;3.30;;;3.17;;
8622;SDS011;4349;47.552;8.904;2023-12-20T11:39:24;3.03;;;2.93;;
8622;SDS011;4349;47.552;8.904;2023-12-20T11:41:53;2.90;;;2.70;;
8622;SDS011;4349;47.552;8.904;2023-12-20T11:44:22;2.83;;;2.73;;
8622;SDS011;4349;47.552;8.904;2023-12-20T11:46:50;2.93;;;2.73;;
8622;SDS011;4349;47.552;8.904;2023-12-20T11:49:17;3.10;;;3.00;;
8622;SDS011;4349;47.552;8.904;2023-12-20T11:51:45;2.40;;;2.30;;
8622;SDS011;4349;47.552;8.904;2023-12-20T11:54:13;2.70;;;2.60;;
8622;SDS011;4349;47.552;8.904;2023-12-20T11:56:41;2.57;;;2.47;;
8622;SDS011;4349;47.552;8.904;2023-12-20T11:59:09;2.33;;;2.23;;
8622;SDS011;4349;47.552;8.904;2023-12-20T12:01:50;1.97;;;1.90;;
8622;SDS011;4349;47.552;8.904;2023-12-20T12:04:18;1.93;;;1.93;;
8622;SDS011;4349;47.552;8.904;2023-12-20T12:06:46;1.70;;;1.70;;
8622;SDS011;4349;47.552;8.904;2023-12-20T12:09:14;1.60;;;1.60;;
8622;SDS011;4349;47.552;8.904;2023-12-20T12:11:41;1.50;;;1.50;;
8622;SDS011;4349;47.552;8.904;2023-12-20T12:14:09;1.70;;;1.70;;
8622;SDS011;4349;47.552;8.904;2023-12-20T12:16:37;1.90;;;1.90;;
8622;SDS011;4349;47.552;8.904;2023-12-20T12:19:06;2.30;;;1.90;;
8622;SDS011;4349;47.552;8.904;2023-12-20T12:21:34;1.90;;;1.90;;
8622;SDS011;4349;47.552;8.904;2023-12-20T12:24:07;2.10;;;2.00;;
8622;SDS011;4349;47.552;8.904;2023-12-20T12:26:35;2.40;;;1.90;;
8622;SDS011;4349;47.552;8.904;2023-12-20T12:29:03;1.50;;;1.50;;
8622;SDS011;4349;47.552;8.904;2023-12-20T12:31:30;1.80;;;1.70;;
8622;SDS011;4349;47.552;8.904;2023-12-20T12:33:58;1.80;;;1.70;;
8622;SDS011;4349;47.552;8.904;2023-12-20T12:36:27;1.67;;;1.57;;
8622;SDS011;4349;47.552;8.904;2023-12-20T12:38:56;1.40;;;1.40;;
8622;SDS011;4349;47.552;8.904;2023-12-20T12:41:23;1.53;;;1.50;;
8622;SDS011;4349;47.552;8.904;2023-12-20T12:43:51;1.33;;;1.33;;
8622;SDS011;4349;47.552;8.904;2023-12-20T12:46:19;1.57;;;1.47;;
8622;SDS011;4349;47.552;8.904;2023-12-20T12:48:47;1.60;;;1.60;;
8622;SDS011;4349;47.552;8.904;2023-12-20T12:51:16;1.30;;;1.30;;
8622;SDS011;4349;47.552;8.904;2023-12-20T12:53:45;1.40;;;1.40;;
8622;SDS011;4349;47.552;8.904;2023-12-20T12:56:13;1.60;;;1.60;;
8622;SDS011;4349;47.552;8.904;2023-12-20T12:58:41;1.40;;;1.40;;
8622;SDS011;4349;47.552;8.904;2023-12-20T13:01:08;1.43;;;1.43;;
8622;SDS011;4349;47.552;8.904;2023-12-20T13:03:36;1.70;;;1.70;;
8622;SDS011;4349;47.552;8.904;2023-12-20T13:06:04;1.43;;;1.43;;
8622;SDS011;4349;47.552;8.904;2023-12-20T13:08:35;1.40;;;1.40;;
8622;SDS011;4349;47.552;8.904;2023-12-20T13:11:04;3.40;;;3.20;;
8622;SDS011;4349;47.552;8.904;2023-12-20T13:13:31;1.73;;;1.73;;
8622;SDS011;4349;47.552;8.904;2023-12-20T13:15:59;1.80;;;1.80;;
8622;SDS011;4349;47.552;8.904;2023-12-20T13:18:27;1.90;;;1.63;;
8622;SDS011;4349;47.552;8.904;2023-12-20T13:20:55;1.53;;;1.53;;
8622;SDS011;4349;47.552;8.904;2023-12-20T13:23:22;2.50;;;2.30;;
8622;SDS011;4349;47.552;8.904;2023-12-20T13:25:50;1.97;;;1.87;;
8622;SDS011;4349;47.552;8.904;2023-12-20T13:28:19;1.80;;;1.80;;
8622;SDS011;4349;47.552;8.904;2023-12-20T13:30:46;1.40;;;1.40;;
8622;SDS011;4349;47.552;8.904;2023-12-20T13:33:14;1.60;;;1.60;;
8622;SDS011;4349;47.552;8.904;2023-12-20T13:35:42;2.20;;;1.80;;
8622;SDS011;4349;47.552;8.904;2023-12-20T13:38:10;2.13;;;1.60;;
8622;SDS011;4349;47.552;8.904;2023-12-20T13:40:39;1.60;;;1.60;;
8622;SDS011;4349;47.552;8.904;2023-12-20T13:43:07;1.50;;;1.50;;
8622;SDS011;4349;47.552;8.904;2023-12-20T13:45:36;1.70;;;1.60;;
8622;SDS011;4349;47.552;8.904;2023-12-20T13:48:05;1.87;;;1.87;;
8622;SDS011;4349;47.552;8.904;2023-12-20T13:50:32;1.90;;;1.80;;
8622;SDS011;4349;47.552;8.904;2023-12-20T13:53:00;2.00;;;1.80;;
8622;SDS011;4349;47.552;8.904;2023-12-20T13:55:30;1.60;;;1.60;;
8622;SDS011;4349;47.552;8.904;2023-12-20T13:57:58;2.00;;;2.00;;
8622;SDS011;4349;47.552;8.904;2023-12-20T14:00:26;2.57;;;2.37;;
8622;SDS011;4349;47.552;8.904;2023-12-20T14:02:55;2.10;;;2.00;;
8622;SDS011;4349;47.552;8.904;2023-12-20T14:05:23;2.07;;;1.97;;
8622;SDS011;4349;47.552;8.904;2023-12-20T14:07:54;1.97;;;1.90;;
8622;SDS011;4349;47.552;8.904;2023-12-20T14:10:24;2.20;;;2.10;;
8622;SDS011;4349;47.552;8.904;2023-12-20T14:12:53;2.50;;;2.40;;
8622;SDS011;4349;47.552;8.904;2023-12-20T14:15:20;1.87;;;1.87;;
8622;SDS011;4349;47.552;8.904;2023-12-20T14:17:51;2.50;;;2.37;;
8622;SDS011;4349;47.552;8.904;2023-12-20T14:20:20;2.33;;;2.17;;
8622;SDS011;4349;47.552;8.904;2023-12-20T14:22:48;2.67;;;2.47;;
8622;SDS011;4349;47.552;8.904;2023-12-20T14:25:15;2.60;;;2.40;;
8622;SDS011;4349;47.552;8.904;2023-12-20T14:27:43;2.50;;;2.30;;
8622;SDS011;4349;47.552;8.904;2023-12-20T14:30:12;2.30;;;2.20;;
8622;SDS011;4349;47.552;8.904;2023-12-20T14:32:40;2.30;;;2.20;;
8622;SDS011;4349;47.552;8.904;2023-12-20T14:35:08;4.53;;;2.20;;
8622;SDS011;4349;47.552;8.904;2023-12-20T14:37:38;3.00;;;2.50;;
8622;SDS011;4349;47.552;8.904;2023-12-20T14:40:07;2.47;;;2.37;;
8622;SDS011;4349;47.552;8.904;2023-12-20T14:42:37;2.73;;;2.57;;
8622;SDS011;4349;47.552;8.904;2023-12-20T14:45:05;5.03;;;2.60;;
8622;SDS011;4349;47.552;8.904;2023-12-20T14:47:33;2.70;;;2.60;;
8622;SDS011;4349;47.552;8.904;2023-12-20T14:50:02;2.80;;;2.60;;
8622;SDS011;4349;47.552;8.904;2023-12-20T14:52:29;3.37;;;2.30;;
8622;SDS011;4349;47.552;8.904;2023-12-20T14:54:58;2.30;;;2.20;;
8622;SDS011;4349;47.552;8.904;2023-12-20T14:57:26;2.30;;;2.20;;
8622;SDS011;4349;47.552;8.904;2023-12-20T14:59:54;2.37;;;2.20;;
8622;SDS011;4349;47.552;8.904;2023-12-20T15:02:21;4.03;;;2.13;;
8622;SDS011;4349;47.552;8.904;2023-12-20T15:04:49;2.10;;;2.00;;
8622;SDS011;4349;47.552;8.904;2023-12-20T15:07:17;2.43;;;2.23;;
8622;SDS011;4349;47.552;8.904;2023-12-20T15:09:45;3.40;;;2.37;;
8622;SDS011;4349;47.552;8.904;2023-12-20T15:12:15;2.20;;;2.03;;
8622;SDS011;4349;47.552;8.904;2023-12-20T15:14:43;4.97;;;2.27;;
8622;SDS011;4349;47.552;8.904;2023-12-20T15:17:11;2.30;;;2.10;;
8622;SDS011;4349;47.552;8.904;2023-12-20T15:19:38;2.30;;;2.10;;
8622;SDS011;4349;47.552;8.904;2023-12-20T15:22:06;3.57;;;2.40;;